createdAt,value
2023-01-12T00:01:38.776Z,16.42
2023-01-12T00:04:06.475Z,16.25
2023-01-12T00:06:33.710Z,17.20
2023-01-12T00:09:03.462Z,15.27
2023-01-12T00:11:30.954Z,18.75
2023-01-12T00:13:58.683Z,16.70
2023-01-12T00:16:35.479Z,19.02
2023-01-12T00:19:12.840Z,17.90
2023-01-12T00:22:13.078Z,18.15
2023-01-12T00:24:45.391Z,19.33
2023-01-12T00:27:15.077Z,18.27
2023-01-12T00:29:42.492Z,19.45
2023-01-12T00:32:14.664Z,18.88
2023-01-12T00:34:41.668Z,16.47
2023-01-12T00:37:08.858Z,18.85
2023-01-12T00:39:43.010Z,17.25
2023-01-12T00:42:31.843Z,16.38
2023-01-12T00:45:17.088Z,16.98
2023-01-12T00:47:43.900Z,21.00
2023-01-12T00:50:10.709Z,19.53
2023-01-12T00:52:37.778Z,17.83
2023-01-12T00:55:04.966Z,17.90
2023-01-12T00:57:31.789Z,18.38
2023-01-12T00:59:59.998Z,17.50
2023-01-12T01:02:28.308Z,17.60
2023-01-12T01:04:55.517Z,19.27
2023-01-12T01:07:22.455Z,20.08
2023-01-12T01:09:49.437Z,18.35
2023-01-12T01:12:16.659Z,21.08
2023-01-12T01:14:43.741Z,19.00
2023-01-12T01:17:10.654Z,18.35
2023-01-12T01:19:37.447Z,18.60
2023-01-12T01:22:04.403Z,18.88
2023-01-12T01:24:31.153Z,20.33
2023-01-12T01:26:58.177Z,18.77
2023-01-12T01:29:24.904Z,17.40
2023-01-12T01:31:54.174Z,19.25
2023-01-12T01:34:20.882Z,17.50
2023-01-12T01:36:47.600Z,18.35
2023-01-12T01:39:14.344Z,18.65
2023-01-12T01:41:43.550Z,18.63
2023-01-12T01:44:29.214Z,18.95
2023-01-12T01:47:03.582Z,17.88
2023-01-12T01:49:39.071Z,16.42
2023-01-12T01:52:14.626Z,19.52
2023-01-12T01:54:53.270Z,17.65
2023-01-12T01:57:23.129Z,19.45
2023-01-12T01:59:54.582Z,18.05
2023-01-12T02:02:22.570Z,16.30
2023-01-12T02:04:49.382Z,17.60
2023-01-12T02:07:16.109Z,18.40
2023-01-12T02:09:44.288Z,17.47
2023-01-12T02:12:29.816Z,19.10
2023-01-12T02:15:15.292Z,18.30
2023-01-12T02:18:00.074Z,17.83
2023-01-12T02:20:53.857Z,16.45
2023-01-12T02:23:39.353Z,17.80
2023-01-12T02:26:12.539Z,15.60
2023-01-12T02:28:51.650Z,20.42
2023-01-12T02:31:40.230Z,18.27
2023-01-12T02:34:28.116Z,18.45
2023-01-12T02:36:58.579Z,16.45
2023-01-12T02:39:39.137Z,18.38
2023-01-12T02:43:02.863Z,16.35
2023-01-12T02:45:52.770Z,17.60
2023-01-12T02:48:30.326Z,20.05
2023-01-12T02:51:10.245Z,18.20
2023-01-12T02:54:01.341Z,19.02
2023-01-12T02:56:33.200Z,17.30
2023-01-12T02:59:06.154Z,17.15
2023-01-12T03:01:36.573Z,18.08
2023-01-12T03:04:06.589Z,16.98
2023-01-12T03:06:45.603Z,16.45
2023-01-12T03:09:16.866Z,18.23
2023-01-12T03:11:47.170Z,16.27
2023-01-12T03:14:15.388Z,17.73
2023-01-12T03:16:43.068Z,18.05
2023-01-12T03:19:18.491Z,18.13
2023-01-12T03:21:50.577Z,18.52
2023-01-12T03:24:21.817Z,17.88
2023-01-12T03:26:52.230Z,18.30
2023-01-12T03:29:35.334Z,17.92
2023-01-12T03:32:02.458Z,16.33
2023-01-12T03:34:30.099Z,16.05
2023-01-12T03:37:03.293Z,17.63
2023-01-12T03:39:54.272Z,17.52
2023-01-12T03:42:37.287Z,19.05
2023-01-12T03:45:12.731Z,17.88
2023-01-12T03:47:41.663Z,17.42
2023-01-12T03:50:18.967Z,18.15
2023-01-12T03:52:47.770Z,19.17
2023-01-12T03:55:17.632Z,16.00
2023-01-12T03:57:45.411Z,16.98
2023-01-12T04:00:14.315Z,17.63
2023-01-12T04:02:43.993Z,18.05
2023-01-12T04:05:13.149Z,19.60
2023-01-12T04:07:40.147Z,16.67
2023-01-12T04:10:07.973Z,15.77
2023-01-12T04:12:34.947Z,15.73
2023-01-12T04:15:01.863Z,17.70
2023-01-12T04:17:29.344Z,17.63
2023-01-12T04:19:56.291Z,15.98
2023-01-12T04:22:41.702Z,16.55
2023-01-12T04:25:09.945Z,16.63
2023-01-12T04:27:37.457Z,16.67
2023-01-12T04:30:05.166Z,17.13
2023-01-12T04:32:32.084Z,16.40
2023-01-12T04:34:59.057Z,16.10
2023-01-12T04:37:25.966Z,17.95
2023-01-12T04:39:52.949Z,17.33
2023-01-12T04:42:38.399Z,17.05
2023-01-12T04:45:05.841Z,15.23
2023-01-12T04:47:33.850Z,17.33
2023-01-12T04:50:00.775Z,18.40
2023-01-12T04:52:27.894Z,17.95
2023-01-12T04:54:56.793Z,17.33
2023-01-12T04:57:24.280Z,17.80
2023-01-12T04:59:51.706Z,16.25
2023-01-12T05:02:18.713Z,17.38
2023-01-12T05:04:47.434Z,17.33
2023-01-12T05:07:15.054Z,19.80
2023-01-12T05:10:00.466Z,14.38
2023-01-12T05:12:27.471Z,15.88
2023-01-12T05:14:54.556Z,16.75
2023-01-12T05:17:21.575Z,16.25
2023-01-12T05:19:49.752Z,18.50
2023-01-12T05:22:16.755Z,19.13
2023-01-12T05:24:43.792Z,15.15
2023-01-12T05:27:10.685Z,17.27
2023-01-12T05:29:37.656Z,17.50
2023-01-12T05:32:04.841Z,17.70
2023-01-12T05:34:31.847Z,15.30
2023-01-12T05:36:58.990Z,18.25
2023-01-12T05:39:25.892Z,16.60
2023-01-12T05:42:11.257Z,17.90
2023-01-12T05:44:38.173Z,16.23
2023-01-12T05:47:05.151Z,18.48
2023-01-12T05:49:32.093Z,15.15
2023-01-12T05:51:59.034Z,18.63
2023-01-12T05:54:26.924Z,18.30
2023-01-12T05:56:55.482Z,17.10
2023-01-12T05:59:23.175Z,14.73
2023-01-12T06:01:50.168Z,16.23
2023-01-12T06:04:17.091Z,14.95
2023-01-12T06:06:44.106Z,14.13
2023-01-12T06:09:11.030Z,15.80
2023-01-12T06:11:56.814Z,14.60
2023-01-12T06:14:23.822Z,15.27
2023-01-12T06:16:50.716Z,16.50
2023-01-12T06:19:17.685Z,15.25
2023-01-12T06:21:44.601Z,15.43
2023-01-12T06:24:11.687Z,14.93
2023-01-12T06:26:38.622Z,18.75
2023-01-12T06:29:07.132Z,15.15
2023-01-12T06:31:34.759Z,15.90
2023-01-12T06:34:01.655Z,16.20
2023-01-12T06:36:28.717Z,15.25
2023-01-12T06:38:55.629Z,15.95
2023-01-12T06:41:41.451Z,15.05
2023-01-12T06:44:08.435Z,17.17
2023-01-12T06:46:35.408Z,15.05
2023-01-12T06:49:02.362Z,15.75
2023-01-12T06:51:29.334Z,15.27
2023-01-12T06:53:56.357Z,16.58
2023-01-12T06:56:23.599Z,14.90
2023-01-12T06:58:50.492Z,14.55
2023-01-12T07:01:17.628Z,16.33
2023-01-12T07:03:45.118Z,14.20
2023-01-12T07:06:12.938Z,15.30
2023-01-12T07:08:40.139Z,13.27
2023-01-12T07:11:12.715Z,13.30
2023-01-12T07:13:39.678Z,16.00
2023-01-12T07:16:07.284Z,15.15
2023-01-12T07:18:34.242Z,16.08
2023-01-12T07:21:07.657Z,15.70
2023-01-12T07:23:35.098Z,15.73
2023-01-12T07:26:02.173Z,15.05
2023-01-12T07:28:31.355Z,15.40
2023-01-12T07:31:02.528Z,16.38
2023-01-12T07:33:30.253Z,14.65
2023-01-12T07:36:01.703Z,13.60
2023-01-12T07:38:30.066Z,14.23
2023-01-12T07:41:04.581Z,14.50
2023-01-12T07:43:33.561Z,14.90
2023-01-12T07:46:01.057Z,13.95
2023-01-12T07:48:28.022Z,14.27
2023-01-12T07:50:55.140Z,14.45
2023-01-12T07:53:22.171Z,15.10
2023-01-12T07:55:49.197Z,15.02
2023-01-12T07:58:16.222Z,13.70
2023-01-12T08:00:43.163Z,14.55
2023-01-12T08:03:14.078Z,16.75
2023-01-12T08:05:41.492Z,13.60
2023-01-12T08:08:08.743Z,15.03
2023-01-12T08:10:36.090Z,16.25
2023-01-12T08:13:03.338Z,14.73
2023-01-12T08:15:35.650Z,13.82
2023-01-12T08:18:20.922Z,14.50
2023-01-12T08:20:48.949Z,14.15
2023-01-12T08:23:42.065Z,13.70
2023-01-12T08:26:15.898Z,15.37
2023-01-12T08:28:48.153Z,14.32
2023-01-12T08:33:49.161Z,14.20
2023-01-12T08:36:17.411Z,15.52
2023-01-12T08:38:44.668Z,14.18
2023-01-12T08:41:30.217Z,16.00
2023-01-12T08:44:03.021Z,14.80
2023-01-12T08:46:31.341Z,13.75
2023-01-12T08:48:58.741Z,13.60
2023-01-12T08:51:25.790Z,14.40
2023-01-12T08:53:53.071Z,14.25
2023-01-12T08:56:20.151Z,13.55
2023-01-12T08:58:47.516Z,12.88
2023-01-12T09:01:16.797Z,12.40
2023-01-12T09:03:44.594Z,13.07
2023-01-12T09:06:12.756Z,14.18
2023-01-12T09:08:39.689Z,14.73
2023-01-12T09:11:08.728Z,13.07
2023-01-12T09:13:35.925Z,14.20
2023-01-12T09:16:12.564Z,13.40
2023-01-12T09:18:41.067Z,14.13
2023-01-12T09:21:10.568Z,13.90
2023-01-12T09:23:38.384Z,13.18
2023-01-12T09:26:10.593Z,13.68
2023-01-12T09:28:38.167Z,13.20
2023-01-12T09:31:07.908Z,14.10
2023-01-12T09:33:36.727Z,13.25
2023-01-12T09:36:06.789Z,15.35
2023-01-12T09:38:38.403Z,12.80
2023-01-12T09:41:44.151Z,13.63
2023-01-12T09:44:41.906Z,13.10
2023-01-12T09:47:36.817Z,13.45
2023-01-12T09:50:34.601Z,13.40
2023-01-12T09:53:07.077Z,13.13
2023-01-12T09:55:39.581Z,13.00
2023-01-12T09:58:28.077Z,14.15
2023-01-12T10:00:57.511Z,13.55
2023-01-12T10:03:38.913Z,14.00
2023-01-12T10:06:08.929Z,14.82
2023-01-12T10:09:03.546Z,15.00
2023-01-12T10:11:45.654Z,14.98
2023-01-12T10:14:34.545Z,13.88
2023-01-12T10:17:20.010Z,14.45
2023-01-12T10:20:05.698Z,14.55
2023-01-12T10:22:43.840Z,13.13
2023-01-12T10:25:32.711Z,14.32
2023-01-12T10:28:00.863Z,13.07
2023-01-12T10:30:39.191Z,14.07
2023-01-12T10:33:10.510Z,13.93
2023-01-12T10:35:56.818Z,13.35
2023-01-12T10:38:53.031Z,14.63
2023-01-12T10:41:21.607Z,14.35
2023-01-12T10:44:00.927Z,13.43
2023-01-12T10:46:31.709Z,14.13
2023-01-12T10:49:23.324Z,15.05
2023-01-12T10:52:02.774Z,13.90
2023-01-12T10:54:31.590Z,14.00
2023-01-12T10:57:07.828Z,13.88
2023-01-12T10:59:37.873Z,14.10
2023-01-12T11:02:08.414Z,13.52
2023-01-12T11:04:43.707Z,13.60
2023-01-12T11:07:48.021Z,14.45
2023-01-12T11:10:41.530Z,13.32
2023-01-12T11:13:33.019Z,13.45
2023-01-12T11:16:30.570Z,14.93
2023-01-12T11:19:17.499Z,15.13
2023-01-12T11:22:13.522Z,14.73
2023-01-12T11:24:57.288Z,14.55
2023-01-12T11:27:40.151Z,13.43
2023-01-12T11:30:16.168Z,14.57
2023-01-12T11:33:08.938Z,13.68
2023-01-12T11:36:30.379Z,13.52
2023-01-12T11:39:06.880Z,12.33
2023-01-12T11:42:09.067Z,13.95
2023-01-12T11:45:14.206Z,13.93
2023-01-12T11:47:47.052Z,12.85
2023-01-12T11:50:27.827Z,13.35
2023-01-12T11:52:58.951Z,13.43
2023-01-12T11:55:43.863Z,14.82
2023-01-12T11:58:42.756Z,13.15
2023-01-12T12:01:12.854Z,12.90
2023-01-12T12:03:59.569Z,12.43
2023-01-12T12:06:53.750Z,12.90
2023-01-12T12:09:45.699Z,14.97
2023-01-12T12:12:31.648Z,13.20
2023-01-12T12:15:01.670Z,12.30
2023-01-12T12:18:02.327Z,12.83
2023-01-12T12:20:47.751Z,14.82
2023-01-12T12:23:28.807Z,13.93
2023-01-12T12:26:21.666Z,13.27
2023-01-12T12:29:03.956Z,13.55
2023-01-12T12:31:49.206Z,12.85
2023-01-12T12:34:25.559Z,12.05
2023-01-12T12:36:55.583Z,12.63
2023-01-12T12:39:56.143Z,13.70
2023-01-12T12:42:44.757Z,12.80
2023-01-12T12:45:17.559Z,13.20
2023-01-12T12:48:15.727Z,13.38
2023-01-12T12:51:04.845Z,13.90
2023-01-12T12:53:46.248Z,13.50
2023-01-12T12:56:18.753Z,13.48
2023-01-12T12:58:53.779Z,13.50
2023-01-12T13:01:20.839Z,12.32
2023-01-12T13:03:52.605Z,13.30
2023-01-12T13:06:37.335Z,13.88
2023-01-12T13:09:12.798Z,13.70
2023-01-12T13:11:54.767Z,12.20
2023-01-12T13:14:26.431Z,12.57
2023-01-12T13:17:00.651Z,12.90
2023-01-12T13:19:38.091Z,13.68
2023-01-12T13:22:42.730Z,13.30
2023-01-12T13:25:26.464Z,13.00
2023-01-12T13:28:18.291Z,14.60
2023-01-12T13:30:55.810Z,13.70
2023-01-12T13:33:27.315Z,13.00
2023-01-12T13:35:55.279Z,12.77
2023-01-12T13:38:22.813Z,12.60
2023-01-12T13:40:55.432Z,13.20
2023-01-12T13:43:30.445Z,15.07
2023-01-12T13:46:17.336Z,13.73
2023-01-12T13:48:48.735Z,12.90
2023-01-12T13:51:40.141Z,13.48
2023-01-12T13:54:17.292Z,14.15
2023-01-12T13:56:58.265Z,14.57
2023-01-12T13:59:26.962Z,13.70
2023-01-12T14:01:54.566Z,14.60
2023-01-12T14:04:59.093Z,14.88
2023-01-12T14:07:55.831Z,14.40
2023-01-12T14:10:42.632Z,13.15
2023-01-12T14:13:49.300Z,13.73
2023-01-12T14:16:36.413Z,13.38
2023-01-12T14:19:28.395Z,13.80
2023-01-12T14:22:04.723Z,14.90
2023-01-12T14:24:31.821Z,16.00
2023-01-12T14:26:58.747Z,14.40
2023-01-12T14:29:25.776Z,14.00
2023-01-12T14:31:53.965Z,13.07
2023-01-12T14:34:28.696Z,14.35
2023-01-12T14:36:56.300Z,14.13
2023-01-12T14:39:26.650Z,13.73
2023-01-12T14:42:14.385Z,14.82
2023-01-12T14:45:37.983Z,16.00
2023-01-12T14:48:26.758Z,14.68
2023-01-12T14:51:21.431Z,15.05
2023-01-12T14:53:55.023Z,13.15
2023-01-12T14:56:26.422Z,14.07
2023-01-12T14:58:54.060Z,12.98
2023-01-12T15:01:32.134Z,14.70
2023-01-12T15:03:59.835Z,13.60
2023-01-12T15:06:27.054Z,13.90
2023-01-12T15:09:01.126Z,14.55
2023-01-12T15:11:45.987Z,13.18
2023-01-12T15:14:22.780Z,13.10
2023-01-12T15:17:08.380Z,14.32
2023-01-12T15:19:54.457Z,13.80
2023-01-12T15:22:45.386Z,14.00
2023-01-12T15:25:36.319Z,12.77
2023-01-12T15:28:05.703Z,13.23
2023-01-12T15:30:37.828Z,13.93
2023-01-12T15:33:05.180Z,12.90
2023-01-12T15:35:32.721Z,14.23
2023-01-12T15:37:59.886Z,16.35
2023-01-12T15:40:28.105Z,13.15
2023-01-12T15:42:55.401Z,13.02
2023-01-12T15:45:38.432Z,13.30
2023-01-12T15:48:06.554Z,12.90
2023-01-12T15:50:36.380Z,12.90
2023-01-12T15:53:03.476Z,13.10
2023-01-12T15:55:31.458Z,12.80
2023-01-12T15:57:58.457Z,14.05
2023-01-12T16:00:25.920Z,14.13
2023-01-12T16:02:54.009Z,16.00
2023-01-12T16:05:23.019Z,14.18
2023-01-12T16:07:50.275Z,13.43
2023-01-12T16:10:17.926Z,13.45
2023-01-12T16:12:46.037Z,15.10
2023-01-12T16:15:24.022Z,14.20
2023-01-12T16:17:52.095Z,13.82
2023-01-12T16:20:20.207Z,12.80
2023-01-12T16:22:47.487Z,14.47
2023-01-12T16:25:15.193Z,13.35
2023-01-12T16:27:42.340Z,15.75
2023-01-12T16:30:14.905Z,12.43
2023-01-12T16:32:46.343Z,12.40
2023-01-12T16:35:15.549Z,14.27
2023-01-12T16:37:43.400Z,14.07
2023-01-12T16:40:11.249Z,13.10
2023-01-12T16:42:38.175Z,13.02
2023-01-12T16:45:06.202Z,13.10
2023-01-12T16:47:33.374Z,13.30
2023-01-12T16:50:00.569Z,14.00
2023-01-12T16:52:27.607Z,13.35
2023-01-12T16:54:54.596Z,13.52
2023-01-12T16:57:21.708Z,13.65
2023-01-12T16:59:50.101Z,13.30
2023-01-12T17:02:19.168Z,12.88
2023-01-12T17:04:48.582Z,12.90
2023-01-12T17:07:15.713Z,12.80
2023-01-12T17:09:43.224Z,13.35
2023-01-12T17:12:10.965Z,12.90
2023-01-12T17:14:38.126Z,13.05
2023-01-12T17:17:09.390Z,12.20
2023-01-12T17:19:38.622Z,12.70
2023-01-12T17:22:07.932Z,12.93
2023-01-12T17:24:39.708Z,13.90
2023-01-12T17:27:08.252Z,14.85
2023-01-12T17:29:35.599Z,14.38
2023-01-12T17:32:07.690Z,15.00
2023-01-12T17:34:37.201Z,13.00
2023-01-12T17:37:07.993Z,12.80
2023-01-12T17:39:36.654Z,12.52
2023-01-12T17:42:22.598Z,13.03
2023-01-12T17:44:49.661Z,14.30
2023-01-12T17:47:16.634Z,13.68
2023-01-12T17:49:45.210Z,12.45
2023-01-12T17:52:12.177Z,13.90
2023-01-12T17:54:39.440Z,12.80
2023-01-12T17:57:06.394Z,13.15
2023-01-12T17:59:33.452Z,14.25
2023-01-12T18:02:00.546Z,13.63
2023-01-12T18:04:27.718Z,13.15
2023-01-12T18:06:54.703Z,12.98
2023-01-12T18:09:21.706Z,13.30
2023-01-12T18:11:48.635Z,13.57
2023-01-12T18:14:15.627Z,13.00
2023-01-12T18:16:42.583Z,12.05
2023-01-12T18:19:12.899Z,13.30
2023-01-12T18:21:39.932Z,12.13
2023-01-12T18:24:07.282Z,12.90
2023-01-12T18:26:35.972Z,12.48
2023-01-12T18:29:05.829Z,12.40
2023-01-12T18:31:37.398Z,13.43
2023-01-12T18:34:06.589Z,13.20
2023-01-12T18:36:39.352Z,13.52
2023-01-12T18:39:08.113Z,13.02
2023-01-12T18:42:08.745Z,13.18
2023-01-12T18:44:38.089Z,13.38
2023-01-12T18:47:43.355Z,13.00
2023-01-12T18:50:29.796Z,12.70
2023-01-12T18:53:15.508Z,13.30
2023-01-12T18:55:42.581Z,13.80
2023-01-12T18:58:09.691Z,13.40
2023-01-12T19:00:37.354Z,12.70
2023-01-12T19:03:05.911Z,12.55
2023-01-12T19:05:43.032Z,13.13
2023-01-12T19:08:28.407Z,13.20
2023-01-12T19:11:06.055Z,13.10
2023-01-12T19:13:51.570Z,13.48
2023-01-12T19:16:36.869Z,13.52
2023-01-12T19:19:03.901Z,12.70
2023-01-12T19:21:49.259Z,12.43
2023-01-12T19:24:42.669Z,14.25
2023-01-12T19:27:31.519Z,12.85
2023-01-12T19:29:58.701Z,13.02
2023-01-12T19:32:25.728Z,13.10
2023-01-12T19:34:56.585Z,13.37
2023-01-12T19:37:29.236Z,13.85
2023-01-12T19:40:00.533Z,13.60
2023-01-12T19:42:47.918Z,13.40
2023-01-12T19:45:15.006Z,12.68
2023-01-12T19:47:42.289Z,13.20
2023-01-12T19:50:11.722Z,12.55
2023-01-12T19:52:40.077Z,13.57
2023-01-12T19:55:09.318Z,13.55
2023-01-12T19:57:37.186Z,13.40
2023-01-12T20:00:06.195Z,14.30
2023-01-12T20:02:33.782Z,13.05
2023-01-12T20:05:00.970Z,12.48
2023-01-12T20:07:27.951Z,13.95
2023-01-12T20:09:54.987Z,13.05
2023-01-12T20:12:21.959Z,14.27
2023-01-12T20:14:49.015Z,13.30
2023-01-12T20:17:16.000Z,14.05
2023-01-12T20:19:42.985Z,12.60
2023-01-12T20:22:10.953Z,13.10
2023-01-12T20:24:38.022Z,13.38
2023-01-12T20:27:04.915Z,14.13
2023-01-12T20:29:31.972Z,13.00
2023-01-12T20:32:01.241Z,13.88
2023-01-12T20:34:28.467Z,12.47
2023-01-12T20:36:55.709Z,12.98
2023-01-12T20:39:24.144Z,15.40
2023-01-12T20:41:51.259Z,13.18
2023-01-12T20:44:20.176Z,13.15
2023-01-12T20:46:47.394Z,13.80
2023-01-12T20:49:14.378Z,13.85
2023-01-12T20:51:41.906Z,12.95
2023-01-12T20:54:10.430Z,14.35
2023-01-12T20:56:37.458Z,14.90
2023-01-12T20:59:04.796Z,13.00
2023-01-12T21:01:31.963Z,12.80
2023-01-12T21:03:59.066Z,13.23
2023-01-12T21:06:26.043Z,13.95
2023-01-12T21:08:53.110Z,14.30
2023-01-12T21:11:21.408Z,13.70
2023-01-12T21:13:48.691Z,12.90
2023-01-12T21:16:18.967Z,13.98
2023-01-12T21:18:46.849Z,15.18
2023-01-12T21:21:14.102Z,13.88
2023-01-12T21:23:41.283Z,14.15
2023-01-12T21:26:08.847Z,12.43
2023-01-12T21:28:39.286Z,13.32
2023-01-12T21:31:10.753Z,12.98
2023-01-12T21:33:37.877Z,13.20
2023-01-12T21:36:05.343Z,12.68
2023-01-12T21:38:32.494Z,14.15
2023-01-12T21:41:04.450Z,12.73
2023-01-12T21:43:32.403Z,12.40
2023-01-12T21:46:10.491Z,12.82
2023-01-12T21:48:37.567Z,12.80
2023-01-12T21:51:06.422Z,14.50
2023-01-12T21:53:34.042Z,13.57
2023-01-12T21:56:02.826Z,12.45
2023-01-12T21:58:32.243Z,12.85
2023-01-12T22:00:59.856Z,12.95
2023-01-12T22:03:28.576Z,13.93
2023-01-12T22:05:55.695Z,12.93
2023-01-12T22:08:22.880Z,13.85
2023-01-12T22:10:49.987Z,13.90
2023-01-12T22:13:17.962Z,12.82
2023-01-12T22:15:45.247Z,12.85
2023-01-12T22:18:12.298Z,12.95
2023-01-12T22:20:40.668Z,14.18
2023-01-12T22:23:08.595Z,13.10
2023-01-12T22:25:35.605Z,12.32
2023-01-12T22:28:02.627Z,13.30
2023-01-12T22:30:29.707Z,14.27
2023-01-12T22:32:56.811Z,12.80
2023-01-12T22:35:25.830Z,13.20
2023-01-12T22:37:52.859Z,13.10
2023-01-12T22:40:19.942Z,13.48
2023-01-12T22:43:05.602Z,14.07
2023-01-12T22:45:34.333Z,12.63
2023-01-12T22:48:01.420Z,12.85
2023-01-12T22:50:28.425Z,12.70
2023-01-12T22:52:56.409Z,12.98
2023-01-12T22:55:25.138Z,12.80
2023-01-12T22:57:52.408Z,13.27
2023-01-12T23:00:20.633Z,13.65
2023-01-12T23:03:03.086Z,13.43
2023-01-12T23:05:36.136Z,13.13
2023-01-12T23:08:05.576Z,12.63
2023-01-12T23:10:32.846Z,12.60
2023-01-12T23:13:26.187Z,12.10
2023-01-12T23:15:56.646Z,13.15
2023-01-12T23:18:29.252Z,14.23
2023-01-12T23:21:03.920Z,12.60
2023-01-12T23:23:31.463Z,12.60
2023-01-12T23:26:03.715Z,12.50
2023-01-12T23:28:31.277Z,12.40
2023-01-12T23:31:06.252Z,12.30
2023-01-12T23:33:33.590Z,12.70
2023-01-12T23:36:09.100Z,13.10
2023-01-12T23:38:36.083Z,13.20
2023-01-12T23:41:34.076Z,12.80
2023-01-12T23:44:03.124Z,12.00
2023-01-12T23:46:33.677Z,13.27
2023-01-12T23:49:01.033Z,12.63
2023-01-12T23:51:29.702Z,12.27
2023-01-12T23:54:01.319Z,12.90
2023-01-12T23:56:30.181Z,12.50
2023-01-12T23:58:57.901Z,12.98
